createdAt,value
2017-12-22T00:00:36.185Z,1025.02
2017-12-22T00:01:16.812Z,1024.94
2017-12-22T00:01:57.400Z,1024.91
2017-12-22T00:02:37.968Z,1024.97
2017-12-22T00:03:18.570Z,1025
2017-12-22T00:03:59.164Z,1024.99
2017-12-22T00:04:39.730Z,1025
2017-12-22T00:05:20.348Z,1024.96
2017-12-22T00:06:00.946Z,1024.96
2017-12-22T00:06:41.499Z,1024.94
2017-12-22T00:07:22.105Z,1024.95
2017-12-22T00:08:02.678Z,1024.99
2017-12-22T00:08:43.277Z,1024.92
2017-12-22T00:09:23.837Z,1024.95
2017-12-22T00:10:04.438Z,1024.96
2017-12-22T00:10:44.999Z,1024.95
2017-12-22T00:11:25.592Z,1024.97
2017-12-22T00:12:06.231Z,1025.01
2017-12-22T00:12:46.784Z,1025
2017-12-22T00:13:27.367Z,1024.9
2017-12-22T00:14:07.978Z,1024.96
2017-12-22T00:14:48.564Z,1024.98
2017-12-22T00:15:29.131Z,1024.96
2017-12-22T00:16:09.697Z,1024.95
2017-12-22T00:16:50.297Z,1024.93
2017-12-22T00:17:30.909Z,1024.91
2017-12-22T00:18:11.478Z,1024.93
2017-12-22T00:18:52.047Z,1024.93
2017-12-22T00:19:32.627Z,1024.9
2017-12-22T00:20:13.205Z,1024.85
2017-12-22T00:20:53.787Z,1024.82
2017-12-22T00:21:34.376Z,1024.84
2017-12-22T00:22:14.931Z,1024.86
2017-12-22T00:22:55.508Z,1024.81
2017-12-22T00:23:36.070Z,1024.84
2017-12-22T00:24:16.657Z,1024.85
2017-12-22T00:24:57.240Z,1024.88
2017-12-22T00:25:37.788Z,1024.87
2017-12-22T00:26:18.398Z,1024.88
2017-12-22T00:26:58.990Z,1024.9
2017-12-22T00:27:39.570Z,1024.84
2017-12-22T00:28:20.126Z,1024.8
2017-12-22T00:29:00.700Z,1024.85
2017-12-22T00:29:41.255Z,1024.82
2017-12-22T00:30:21.846Z,1024.81
2017-12-22T00:31:02.416Z,1024.87
2017-12-22T00:31:43.006Z,1024.87
2017-12-22T00:32:23.593Z,1024.9
2017-12-22T00:33:04.152Z,1024.88
2017-12-22T00:33:44.726Z,1024.9
2017-12-22T00:34:25.317Z,1024.85
2017-12-22T00:35:05.905Z,1024.89
2017-12-22T00:35:46.492Z,1024.87
2017-12-22T00:36:27.056Z,1024.86
2017-12-22T00:37:07.670Z,1024.86
2017-12-22T00:37:48.245Z,1024.87
2017-12-22T00:38:28.802Z,1024.85
2017-12-22T00:39:09.381Z,1024.85
2017-12-22T00:39:49.937Z,1024.84
2017-12-22T00:40:30.504Z,1024.86
2017-12-22T00:41:11.066Z,1024.81
2017-12-22T00:41:51.634Z,1024.8
2017-12-22T00:42:32.204Z,1024.8
2017-12-22T00:43:12.780Z,1024.8
2017-12-22T00:43:53.354Z,1024.8
2017-12-22T00:44:33.913Z,1024.81
2017-12-22T00:45:14.473Z,1024.76
2017-12-22T00:45:55.038Z,1024.78
2017-12-22T00:46:35.616Z,1024.78
2017-12-22T00:47:16.174Z,1024.78
2017-12-22T00:47:56.732Z,1024.77
2017-12-22T00:48:37.333Z,1024.72
2017-12-22T00:49:17.901Z,1024.75
2017-12-22T00:49:58.472Z,1024.72
2017-12-22T00:50:39.037Z,1024.73
2017-12-22T00:51:19.613Z,1024.71
2017-12-22T00:52:00.184Z,1024.69
2017-12-22T00:52:40.763Z,1024.65
2017-12-22T00:53:21.343Z,1024.66
2017-12-22T00:54:01.914Z,1024.7
2017-12-22T00:54:42.479Z,1024.67
2017-12-22T00:55:23.059Z,1024.65
2017-12-22T00:56:03.662Z,1024.67
2017-12-22T00:56:44.228Z,1024.67
2017-12-22T00:57:24.833Z,1024.62
2017-12-22T00:58:05.404Z,1024.62
2017-12-22T00:58:45.975Z,1024.63
2017-12-22T00:59:26.543Z,1024.61
2017-12-22T01:00:07.122Z,1024.58
2017-12-22T01:00:47.685Z,1024.61
2017-12-22T01:01:28.253Z,1024.62
2017-12-22T01:02:08.830Z,1024.57
2017-12-22T01:02:49.397Z,1024.62
2017-12-22T01:03:29.984Z,1024.64
2017-12-22T01:04:10.551Z,1024.65
2017-12-22T01:04:51.117Z,1024.61
2017-12-22T01:05:31.695Z,1024.61
2017-12-22T01:06:12.283Z,1024.64
2017-12-22T01:06:52.855Z,1024.63
2017-12-22T01:07:33.437Z,1024.61
2017-12-22T01:08:14.044Z,1024.57
2017-12-22T01:08:54.612Z,1024.56
2017-12-22T01:09:35.165Z,1024.61
2017-12-22T01:10:15.752Z,1024.61
2017-12-22T01:10:56.359Z,1024.61
2017-12-22T01:11:36.953Z,1024.62
2017-12-22T01:12:17.508Z,1024.6
2017-12-22T01:12:58.076Z,1024.62
2017-12-22T01:13:38.632Z,1024.66
2017-12-22T01:14:19.207Z,1024.62
2017-12-22T01:14:59.772Z,1024.62
2017-12-22T01:15:40.322Z,1024.63
2017-12-22T01:16:20.909Z,1024.64
2017-12-22T01:17:01.504Z,1024.62
2017-12-22T01:17:42.072Z,1024.63
2017-12-22T01:18:22.630Z,1024.57
2017-12-22T01:19:03.227Z,1024.58
2017-12-22T01:19:43.786Z,1024.52
2017-12-22T01:20:24.382Z,1024.52
2017-12-22T01:21:04.974Z,1024.5
2017-12-22T01:21:45.593Z,1024.53
2017-12-22T01:22:26.163Z,1024.56
2017-12-22T01:23:06.723Z,1024.55
2017-12-22T01:23:47.293Z,1024.56
2017-12-22T01:24:27.865Z,1024.59
2017-12-22T01:25:08.440Z,1024.56
2017-12-22T01:25:49.005Z,1024.56
2017-12-22T01:26:29.579Z,1024.51
2017-12-22T01:27:10.141Z,1024.49
2017-12-22T01:27:50.742Z,1024.54
2017-12-22T01:28:31.318Z,1024.55
2017-12-22T01:29:11.893Z,1024.57
2017-12-22T01:29:52.495Z,1024.57
2017-12-22T01:30:33.063Z,1024.6
2017-12-22T01:31:13.617Z,1024.65
2017-12-22T01:31:54.215Z,1024.67
2017-12-22T01:32:34.770Z,1024.73
2017-12-22T01:33:15.325Z,1024.68
2017-12-22T01:33:55.893Z,1024.69
2017-12-22T01:34:36.449Z,1024.72
2017-12-22T01:35:17.011Z,1024.72
2017-12-22T01:35:57.580Z,1024.74
2017-12-22T01:36:38.169Z,1024.76
2017-12-22T01:37:18.758Z,1024.8
2017-12-22T01:37:59.323Z,1024.79
2017-12-22T01:38:39.919Z,1024.72
2017-12-22T01:39:20.530Z,1024.67
2017-12-22T01:40:01.091Z,1024.65
2017-12-22T01:40:41.665Z,1024.5
2017-12-22T01:41:22.258Z,1024.46
2017-12-22T01:42:02.832Z,1024.43
2017-12-22T01:42:43.400Z,1024.37
2017-12-22T01:43:23.983Z,1024.36
2017-12-22T01:44:04.595Z,1024.33
2017-12-22T01:44:45.151Z,1024.36
2017-12-22T01:45:32.998Z,1024.38
2017-12-22T01:46:13.562Z,1024.35
2017-12-22T01:46:54.140Z,1024.41
2017-12-22T01:47:34.727Z,1024.41
2017-12-22T01:48:15.282Z,1024.45
2017-12-22T01:48:55.863Z,1024.36
2017-12-22T01:49:36.452Z,1024.37
2017-12-22T01:50:17.035Z,1024.38
2017-12-22T01:50:57.625Z,1024.43
2017-12-22T01:51:38.205Z,1024.43
2017-12-22T01:52:18.791Z,1024.47
2017-12-22T01:52:59.346Z,1024.49
2017-12-22T01:53:39.904Z,1024.49
2017-12-22T01:54:20.508Z,1024.46
2017-12-22T01:55:01.099Z,1024.43
2017-12-22T01:55:41.688Z,1024.44
2017-12-22T01:56:22.260Z,1024.5
2017-12-22T01:57:02.860Z,1024.46
2017-12-22T01:57:43.472Z,1024.44
2017-12-22T01:58:24.056Z,1024.48
2017-12-22T01:59:04.658Z,1024.46
2017-12-22T01:59:45.220Z,1024.4
2017-12-22T02:00:25.829Z,1024.42
2017-12-22T02:01:06.386Z,1024.38
2017-12-22T02:01:46.970Z,1024.44
2017-12-22T02:02:27.562Z,1024.42
2017-12-22T02:03:08.127Z,1024.43
2017-12-22T02:03:48.717Z,1024.49
2017-12-22T02:04:29.280Z,1024.44
2017-12-22T02:05:09.860Z,1024.46
2017-12-22T02:05:50.420Z,1024.48
2017-12-22T02:06:30.983Z,1024.5
2017-12-22T02:07:11.542Z,1024.46
2017-12-22T02:07:52.143Z,1024.45
2017-12-22T02:08:32.700Z,1024.43
2017-12-22T02:09:13.300Z,1024.46
2017-12-22T02:09:53.881Z,1024.52
2017-12-22T02:10:34.475Z,1024.45
2017-12-22T02:11:15.049Z,1024.48
2017-12-22T02:11:55.639Z,1024.53
2017-12-22T02:12:36.252Z,1024.49
2017-12-22T02:13:16.848Z,1024.54
2017-12-22T02:13:57.427Z,1024.45
2017-12-22T02:14:38.008Z,1024.47
2017-12-22T02:15:18.563Z,1024.52
2017-12-22T02:15:59.156Z,1024.5
2017-12-22T02:16:39.734Z,1024.45
2017-12-22T02:17:20.291Z,1024.44
2017-12-22T02:18:00.862Z,1024.49
2017-12-22T02:18:41.450Z,1024.51
2017-12-22T02:19:22.049Z,1024.51
2017-12-22T02:20:02.607Z,1024.52
2017-12-22T02:20:43.175Z,1024.53
2017-12-22T02:21:23.738Z,1024.52
2017-12-22T02:22:04.316Z,1024.5
2017-12-22T02:22:44.868Z,1024.5
2017-12-22T02:23:25.439Z,1024.5
2017-12-22T02:24:06.045Z,1024.51
2017-12-22T02:24:46.652Z,1024.48
2017-12-22T02:25:27.241Z,1024.49
2017-12-22T02:26:07.831Z,1024.46
2017-12-22T02:26:48.425Z,1024.42
2017-12-22T02:27:29.012Z,1024.41
2017-12-22T02:28:09.599Z,1024.44
2017-12-22T02:28:50.164Z,1024.38
2017-12-22T02:29:30.725Z,1024.39
2017-12-22T02:30:11.300Z,1024.35
2017-12-22T02:30:51.884Z,1024.31
2017-12-22T02:31:32.456Z,1024.37
2017-12-22T02:32:13.033Z,1024.33
2017-12-22T02:32:53.617Z,1024.35
2017-12-22T02:33:34.171Z,1024.37
2017-12-22T02:34:14.739Z,1024.34
2017-12-22T02:34:55.305Z,1024.4
2017-12-22T02:35:35.887Z,1024.37
2017-12-22T02:36:16.489Z,1024.41
2017-12-22T02:36:57.040Z,1024.44
2017-12-22T02:37:37.613Z,1024.41
2017-12-22T02:38:18.194Z,1024.41
2017-12-22T02:38:58.763Z,1024.43
2017-12-22T02:39:39.314Z,1024.44
2017-12-22T02:40:19.883Z,1024.43
2017-12-22T02:41:00.450Z,1024.42
2017-12-22T02:41:41.025Z,1024.4
2017-12-22T02:42:21.602Z,1024.39
2017-12-22T02:43:02.186Z,1024.39
2017-12-22T02:43:42.777Z,1024.37
2017-12-22T02:44:23.393Z,1024.41
2017-12-22T02:45:03.943Z,1024.41
2017-12-22T02:45:44.511Z,1024.42
2017-12-22T02:46:25.117Z,1024.43
2017-12-22T02:47:05.698Z,1024.46
2017-12-22T02:47:46.264Z,1024.41
2017-12-22T02:48:26.874Z,1024.39
2017-12-22T02:49:07.456Z,1024.4
2017-12-22T02:49:48.026Z,1024.37
2017-12-22T02:50:28.590Z,1024.32
2017-12-22T02:51:09.166Z,1024.41
2017-12-22T02:51:49.744Z,1024.38
2017-12-22T02:52:30.327Z,1024.35
2017-12-22T02:53:10.898Z,1024.33
2017-12-22T02:53:51.472Z,1024.35
2017-12-22T02:54:32.047Z,1024.26
2017-12-22T02:55:12.618Z,1024.28
2017-12-22T02:55:53.193Z,1024.29
2017-12-22T02:56:33.762Z,1024.22
2017-12-22T02:57:14.324Z,1024.24
2017-12-22T02:57:54.880Z,1024.27
2017-12-22T02:58:35.449Z,1024.23
2017-12-22T02:59:16.026Z,1024.17
2017-12-22T02:59:56.593Z,1024.24
2017-12-22T03:00:37.168Z,1024.21
2017-12-22T03:01:17.734Z,1024.24
2017-12-22T03:01:58.347Z,1024.26
2017-12-22T03:02:38.909Z,1024.26
2017-12-22T03:03:19.508Z,1024.29
2017-12-22T03:04:00.090Z,1024.26
2017-12-22T03:04:40.662Z,1024.29
2017-12-22T03:05:21.268Z,1024.29
2017-12-22T03:06:01.833Z,1024.26
2017-12-22T03:06:42.413Z,1024.22
2017-12-22T03:07:22.962Z,1024.27
2017-12-22T03:08:03.565Z,1024.23
2017-12-22T03:08:44.133Z,1024.27
2017-12-22T03:09:24.721Z,1024.25
2017-12-22T03:10:05.295Z,1024.26
2017-12-22T03:10:45.867Z,1024.25
2017-12-22T03:11:26.444Z,1024.22
2017-12-22T03:12:07.033Z,1024.24
2017-12-22T03:12:47.602Z,1024.25
2017-12-22T03:13:28.169Z,1024.21
2017-12-22T03:14:08.744Z,1024.2
2017-12-22T03:14:49.318Z,1024.21
2017-12-22T03:15:29.880Z,1024.22
2017-12-22T03:16:10.432Z,1024.21
2017-12-22T03:16:51.013Z,1024.26
2017-12-22T03:17:31.584Z,1024.25
2017-12-22T03:18:12.166Z,1024.22
2017-12-22T03:18:52.722Z,1024.26
2017-12-22T03:19:33.289Z,1024.23
2017-12-22T03:20:13.876Z,1024.24
2017-12-22T03:20:54.482Z,1024.29
2017-12-22T03:21:35.056Z,1024.18
2017-12-22T03:22:15.650Z,1024.25
2017-12-22T03:22:56.227Z,1024.21
2017-12-22T03:23:36.800Z,1024.19
2017-12-22T03:24:17.407Z,1024.18
2017-12-22T03:24:57.993Z,1024.21
2017-12-22T03:25:38.561Z,1024.21
2017-12-22T03:26:19.154Z,1024.17
2017-12-22T03:26:59.766Z,1024.22
2017-12-22T03:27:40.351Z,1024.23
2017-12-22T03:28:20.921Z,1024.2
2017-12-22T03:29:01.497Z,1024.23
2017-12-22T03:29:42.069Z,1024.21
2017-12-22T03:30:22.661Z,1024.2
2017-12-22T03:31:03.218Z,1024.21
2017-12-22T03:31:43.794Z,1024.23
2017-12-22T03:32:24.366Z,1024.24
2017-12-22T03:33:04.960Z,1024.24
2017-12-22T03:33:45.528Z,1024.25
2017-12-22T03:34:26.102Z,1024.26
2017-12-22T03:35:06.678Z,1024.22
2017-12-22T03:35:47.255Z,1024.26
2017-12-22T03:36:27.832Z,1024.25
2017-12-22T03:37:08.395Z,1024.22
2017-12-22T03:37:48.961Z,1024.21
2017-12-22T03:38:29.551Z,1024.23
2017-12-22T03:39:10.127Z,1024.21
2017-12-22T03:39:50.714Z,1024.2
2017-12-22T03:40:31.309Z,1024.2
2017-12-22T03:41:11.904Z,1024.2
2017-12-22T03:41:52.463Z,1024.17
2017-12-22T03:42:33.049Z,1024.21
2017-12-22T03:43:13.615Z,1024.18
2017-12-22T03:43:54.207Z,1024.18
2017-12-22T03:44:34.791Z,1024.18
2017-12-22T03:45:15.365Z,1024.17
2017-12-22T03:45:55.924Z,1024.15
2017-12-22T03:46:36.478Z,1024.19
2017-12-22T03:47:17.088Z,1024.18
2017-12-22T03:47:57.654Z,1024.16
2017-12-22T03:48:38.226Z,1024.15
2017-12-22T03:49:18.794Z,1024.19
2017-12-22T03:49:59.371Z,1024.15
2017-12-22T03:50:39.966Z,1024.15
2017-12-22T03:51:20.535Z,1024.14
2017-12-22T03:52:01.123Z,1024.16
2017-12-22T03:52:41.685Z,1024.09
2017-12-22T03:53:22.293Z,1024.08
2017-12-22T03:54:02.889Z,1024.1
2017-12-22T03:54:43.497Z,1024.1
2017-12-22T03:55:24.060Z,1024.07
2017-12-22T03:56:04.644Z,1024.14
2017-12-22T03:56:45.249Z,1024.06
2017-12-22T03:57:25.809Z,1024.05
2017-12-22T03:58:06.385Z,1024.1
2017-12-22T03:58:46.954Z,1024.13
2017-12-22T03:59:27.546Z,1024.12
2017-12-22T04:00:08.108Z,1024.12
2017-12-22T04:00:48.701Z,1024.17
2017-12-22T04:01:29.282Z,1024.2
2017-12-22T04:02:09.857Z,1024.19
2017-12-22T04:02:50.418Z,1024.25
2017-12-22T04:03:30.971Z,1024.24
2017-12-22T04:04:11.551Z,1024.27
2017-12-22T04:04:52.105Z,1024.24
2017-12-22T04:05:32.693Z,1024.24
2017-12-22T04:06:13.257Z,1024.25
2017-12-22T04:06:53.827Z,1024.23
2017-12-22T04:07:34.423Z,1024.28
2017-12-22T04:08:15.025Z,1024.28
2017-12-22T04:08:55.614Z,1024.25
2017-12-22T04:09:36.173Z,1024.21
2017-12-22T04:10:16.728Z,1024.28
2017-12-22T04:10:57.337Z,1024.23
2017-12-22T04:11:37.893Z,1024.24
2017-12-22T04:12:18.472Z,1024.26
2017-12-22T04:12:59.032Z,1024.28
2017-12-22T04:13:39.608Z,1024.26
2017-12-22T04:14:20.187Z,1024.3
2017-12-22T04:15:00.809Z,1024.32
2017-12-22T04:15:41.399Z,1024.34
2017-12-22T04:16:21.963Z,1024.34
2017-12-22T04:17:02.573Z,1024.41
2017-12-22T04:17:43.190Z,1024.34
2017-12-22T04:18:23.756Z,1024.37
2017-12-22T04:19:04.384Z,1024.4
2017-12-22T04:19:44.956Z,1024.35
2017-12-22T04:20:25.532Z,1024.37
2017-12-22T04:21:06.088Z,1024.33
2017-12-22T04:21:46.659Z,1024.29
2017-12-22T04:22:27.241Z,1024.26
2017-12-22T04:23:07.845Z,1024.27
2017-12-22T04:23:48.386Z,1024.27
2017-12-22T04:24:28.956Z,1024.31
2017-12-22T04:25:09.541Z,1024.28
2017-12-22T04:25:50.124Z,1024.23
2017-12-22T04:26:30.701Z,1024.25
2017-12-22T04:27:11.258Z,1024.31
2017-12-22T04:27:51.837Z,1024.3
2017-12-22T04:28:32.391Z,1024.27
2017-12-22T04:29:12.948Z,1024.34
2017-12-22T04:29:53.556Z,1024.35
2017-12-22T04:30:34.139Z,1024.39
2017-12-22T04:31:14.705Z,1024.38
2017-12-22T04:31:55.305Z,1024.38
2017-12-22T04:32:35.910Z,1024.44
2017-12-22T04:33:16.488Z,1024.39
2017-12-22T04:33:57.056Z,1024.39
2017-12-22T04:34:37.620Z,1024.45
2017-12-22T04:35:18.223Z,1024.42
2017-12-22T04:35:58.798Z,1024.45
2017-12-22T04:36:39.411Z,1024.48
2017-12-22T04:37:20.000Z,1024.48
2017-12-22T04:38:00.566Z,1024.48
2017-12-22T04:38:41.168Z,1024.47
2017-12-22T04:39:21.723Z,1024.48
2017-12-22T04:40:02.313Z,1024.5
2017-12-22T04:40:42.924Z,1024.45
2017-12-22T04:41:23.473Z,1024.54
2017-12-22T04:42:04.045Z,1024.49
2017-12-22T04:42:44.635Z,1024.51
2017-12-22T04:43:25.203Z,1024.5
2017-12-22T04:44:05.828Z,1024.51
2017-12-22T04:44:46.415Z,1024.52
2017-12-22T04:45:26.971Z,1024.49
2017-12-22T04:46:07.541Z,1024.46
2017-12-22T04:46:48.147Z,1024.52
2017-12-22T04:47:28.713Z,1024.51
2017-12-22T04:48:09.294Z,1024.48
2017-12-22T04:48:49.850Z,1024.5
2017-12-22T04:49:30.443Z,1024.53
2017-12-22T04:50:11.026Z,1024.5
2017-12-22T04:50:51.603Z,1024.51
2017-12-22T04:51:32.168Z,1024.52
2017-12-22T04:52:12.738Z,1024.49
2017-12-22T04:52:53.315Z,1024.5
2017-12-22T04:53:33.877Z,1024.53
2017-12-22T04:54:14.442Z,1024.56
2017-12-22T04:54:55.021Z,1024.5
2017-12-22T04:55:35.599Z,1024.5
2017-12-22T04:56:16.168Z,1024.51
2017-12-22T04:56:56.742Z,1024.52
2017-12-22T04:57:37.318Z,1024.49
2017-12-22T04:58:17.884Z,1024.52
2017-12-22T04:58:58.514Z,1024.48
2017-12-22T04:59:39.079Z,1024.49
2017-12-22T05:00:19.650Z,1024.51
2017-12-22T05:01:00.211Z,1024.49
2017-12-22T05:01:40.784Z,1024.47
2017-12-22T05:02:21.380Z,1024.52
2017-12-22T05:03:01.987Z,1024.51
2017-12-22T05:03:42.551Z,1024.52
2017-12-22T05:04:23.122Z,1024.51
2017-12-22T05:05:03.757Z,1024.51
2017-12-22T05:05:44.338Z,1024.46
2017-12-22T05:06:24.908Z,1024.46
2017-12-22T05:07:05.470Z,1024.48
2017-12-22T05:07:46.065Z,1024.42
2017-12-22T05:08:26.625Z,1024.45
2017-12-22T05:09:07.217Z,1024.46
2017-12-22T05:09:47.809Z,1024.39
2017-12-22T05:10:28.393Z,1024.38
2017-12-22T05:11:08.949Z,1024.38
2017-12-22T05:11:49.525Z,1024.42
2017-12-22T05:12:30.119Z,1024.42
2017-12-22T05:13:10.711Z,1024.41
2017-12-22T05:13:51.288Z,1024.53
2017-12-22T05:14:31.855Z,1024.42
2017-12-22T05:15:12.427Z,1024.45
2017-12-22T05:15:53.006Z,1024.46
2017-12-22T05:16:33.582Z,1024.44
2017-12-22T05:17:14.172Z,1024.49
2017-12-22T05:17:54.790Z,1024.52
2017-12-22T05:18:35.381Z,1024.46
2017-12-22T05:19:15.967Z,1024.55
2017-12-22T05:19:56.526Z,1024.59
2017-12-22T05:20:37.093Z,1024.52
2017-12-22T05:21:17.686Z,1024.55
2017-12-22T05:21:58.251Z,1024.57
2017-12-22T05:22:38.812Z,1024.56
2017-12-22T05:23:19.498Z,1024.56
2017-12-22T05:24:00.065Z,1024.56
2017-12-22T05:24:40.649Z,1024.53
2017-12-22T05:25:21.221Z,1024.53
2017-12-22T05:26:01.803Z,1024.53
2017-12-22T05:26:42.396Z,1024.56
2017-12-22T05:27:23.020Z,1024.52
2017-12-22T05:28:03.578Z,1024.55
2017-12-22T05:28:44.149Z,1024.56
2017-12-22T05:29:24.764Z,1024.51
2017-12-22T05:30:05.343Z,1024.55
2017-12-22T05:30:45.927Z,1024.58
2017-12-22T05:31:26.572Z,1024.58
2017-12-22T05:32:07.264Z,1024.54
2017-12-22T05:32:47.886Z,1024.52
2017-12-22T05:33:28.472Z,1024.55
2017-12-22T05:34:09.035Z,1024.53
2017-12-22T05:34:49.933Z,1024.59
2017-12-22T05:35:30.554Z,1024.6
2017-12-22T05:36:11.122Z,1024.56
2017-12-22T05:36:51.714Z,1024.57
2017-12-22T05:37:32.313Z,1024.59
2017-12-22T05:38:12.862Z,1024.53
2017-12-22T05:38:53.511Z,1024.54
2017-12-22T05:39:34.087Z,1024.56
2017-12-22T05:40:14.684Z,1024.51
2017-12-22T05:40:55.254Z,1024.54
2017-12-22T05:41:35.838Z,1024.52
2017-12-22T05:42:16.416Z,1024.55
2017-12-22T05:42:56.994Z,1024.51
2017-12-22T05:43:37.580Z,1024.51
2017-12-22T05:44:18.139Z,1024.56
2017-12-22T05:44:58.736Z,1024.5
2017-12-22T05:45:39.301Z,1024.51
2017-12-22T05:46:19.857Z,1024.49
2017-12-22T05:47:00.437Z,1024.56
2017-12-22T05:47:40.996Z,1024.54
2017-12-22T05:48:21.598Z,1024.52
2017-12-22T05:49:02.164Z,1024.53
2017-12-22T05:49:42.746Z,1024.56
2017-12-22T05:50:23.327Z,1024.52
2017-12-22T05:51:03.891Z,1024.58
2017-12-22T05:51:44.458Z,1024.51
2017-12-22T05:52:25.059Z,1024.49
2017-12-22T05:53:05.647Z,1024.56
2017-12-22T05:53:46.209Z,1024.56
2017-12-22T05:54:26.784Z,1024.55
2017-12-22T05:55:07.368Z,1024.56
2017-12-22T05:55:47.928Z,1024.55
2017-12-22T05:56:28.514Z,1024.52
2017-12-22T05:57:09.078Z,1024.56
2017-12-22T05:57:49.670Z,1024.54
2017-12-22T05:58:30.261Z,1024.55
2017-12-22T05:59:10.827Z,1024.54
2017-12-22T05:59:51.398Z,1024.57
2017-12-22T06:00:31.977Z,1024.53
2017-12-22T06:01:12.533Z,1024.54
2017-12-22T06:01:53.124Z,1024.58
2017-12-22T06:02:33.713Z,1024.55
2017-12-22T06:03:14.276Z,1024.58
2017-12-22T06:03:54.865Z,1024.54
2017-12-22T06:04:35.430Z,1024.5
2017-12-22T06:05:16.051Z,1024.58
2017-12-22T06:05:56.645Z,1024.56
2017-12-22T06:06:37.214Z,1024.52
2017-12-22T06:07:17.790Z,1024.54
2017-12-22T06:07:58.358Z,1024.56
2017-12-22T06:08:38.938Z,1024.58
2017-12-22T06:09:19.530Z,1024.53
2017-12-22T06:10:00.096Z,1024.55
2017-12-22T06:10:40.683Z,1024.55
2017-12-22T06:11:21.247Z,1024.57
2017-12-22T06:12:01.867Z,1024.52
2017-12-22T06:12:42.511Z,1024.51
2017-12-22T06:13:23.069Z,1024.54
2017-12-22T06:14:03.680Z,1024.49
2017-12-22T06:14:44.274Z,1024.55
2017-12-22T06:15:24.853Z,1024.5
2017-12-22T06:16:05.415Z,1024.53
2017-12-22T06:16:46.043Z,1024.51
2017-12-22T06:17:26.652Z,1024.52
2017-12-22T06:18:07.321Z,1024.47
2017-12-22T06:18:48.030Z,1024.47
2017-12-22T06:19:28.574Z,1024.51
2017-12-22T06:20:09.142Z,1024.52
2017-12-22T06:20:49.734Z,1024.47
2017-12-22T06:21:30.331Z,1024.48
2017-12-22T06:22:10.900Z,1024.46
2017-12-22T06:22:51.479Z,1024.48
2017-12-22T06:23:32.059Z,1024.48
2017-12-22T06:24:12.633Z,1024.47
2017-12-22T06:24:53.260Z,1024.48
2017-12-22T06:25:33.864Z,1024.45
2017-12-22T06:26:14.465Z,1024.48
2017-12-22T06:26:55.044Z,1024.46
2017-12-22T06:27:35.608Z,1024.47
2017-12-22T06:28:16.181Z,1024.48
2017-12-22T06:28:56.774Z,1024.48
2017-12-22T06:29:37.373Z,1024.47
2017-12-22T06:30:17.959Z,1024.46
2017-12-22T06:30:58.526Z,1024.42
2017-12-22T06:31:39.082Z,1024.46
2017-12-22T06:32:19.694Z,1024.47
2017-12-22T06:33:00.279Z,1024.49
2017-12-22T06:33:40.828Z,1024.48
2017-12-22T06:34:21.388Z,1024.47
2017-12-22T06:35:01.958Z,1024.49
2017-12-22T06:35:42.528Z,1024.48
2017-12-22T06:36:23.101Z,1024.45
2017-12-22T06:37:03.719Z,1024.49
2017-12-22T06:37:44.300Z,1024.51
2017-12-22T06:38:24.928Z,1024.49
2017-12-22T06:39:05.554Z,1024.49
2017-12-22T06:39:46.151Z,1024.52
2017-12-22T06:40:26.721Z,1024.48
2017-12-22T06:41:07.285Z,1024.5
2017-12-22T06:41:47.860Z,1024.48
2017-12-22T06:42:28.439Z,1024.51
2017-12-22T06:43:09.006Z,1024.49
2017-12-22T06:43:49.583Z,1024.47
2017-12-22T06:44:30.171Z,1024.49
2017-12-22T06:45:10.774Z,1024.54
2017-12-22T06:45:51.374Z,1024.5
2017-12-22T06:46:31.945Z,1024.54
2017-12-22T06:47:12.521Z,1024.5
2017-12-22T06:47:53.101Z,1024.53
2017-12-22T06:48:33.666Z,1024.56
2017-12-22T06:49:14.232Z,1024.59
2017-12-22T06:49:54.820Z,1024.63
2017-12-22T06:50:35.412Z,1024.63
2017-12-22T06:51:15.997Z,1024.65
2017-12-22T06:51:56.586Z,1024.62
2017-12-22T06:52:37.150Z,1024.65
2017-12-22T06:53:17.725Z,1024.61
2017-12-22T06:53:58.299Z,1024.65
2017-12-22T06:54:38.880Z,1024.64
2017-12-22T06:55:19.479Z,1024.62
2017-12-22T06:56:00.031Z,1024.63
2017-12-22T06:56:40.587Z,1024.69
2017-12-22T06:57:21.168Z,1024.66
2017-12-22T06:58:01.771Z,1024.65
2017-12-22T06:58:42.350Z,1024.61
2017-12-22T06:59:22.918Z,1024.68
2017-12-22T07:00:03.500Z,1024.66
2017-12-22T07:00:44.126Z,1024.68
2017-12-22T07:01:24.707Z,1024.67
2017-12-22T07:02:05.286Z,1024.69
2017-12-22T07:02:45.842Z,1024.75
2017-12-22T07:03:26.420Z,1024.7
2017-12-22T07:04:07.024Z,1024.72
2017-12-22T07:04:47.627Z,1024.76
2017-12-22T07:05:28.199Z,1024.75
2017-12-22T07:06:08.772Z,1024.76
2017-12-22T07:06:49.383Z,1024.74
2017-12-22T07:07:29.936Z,1024.77
2017-12-22T07:08:10.515Z,1024.73
2017-12-22T07:08:51.108Z,1024.75
2017-12-22T07:09:31.692Z,1024.71
2017-12-22T07:10:12.263Z,1024.78
2017-12-22T07:10:52.844Z,1024.75
2017-12-22T07:11:33.400Z,1024.79
2017-12-22T07:12:13.966Z,1024.75
2017-12-22T07:12:54.547Z,1024.76
2017-12-22T07:13:35.150Z,1024.78
2017-12-22T07:14:15.731Z,1024.78
2017-12-22T07:14:56.292Z,1024.73
2017-12-22T07:15:36.910Z,1024.7
2017-12-22T07:16:17.474Z,1024.69
2017-12-22T07:16:58.046Z,1024.69
2017-12-22T07:17:38.619Z,1024.68
2017-12-22T07:18:19.194Z,1024.7
2017-12-22T07:18:59.762Z,1024.64
2017-12-22T07:19:40.353Z,1024.65
2017-12-22T07:20:20.927Z,1024.64
2017-12-22T07:21:01.527Z,1024.64
2017-12-22T07:21:42.109Z,1024.63
2017-12-22T07:22:22.670Z,1024.66
2017-12-22T07:23:03.231Z,1024.63
2017-12-22T07:23:43.827Z,1024.65
2017-12-22T07:24:24.448Z,1024.62
2017-12-22T07:25:05.027Z,1024.58
2017-12-22T07:25:45.591Z,1024.57
2017-12-22T07:26:26.194Z,1024.57
2017-12-22T07:27:06.891Z,1024.54
2017-12-22T07:27:47.501Z,1024.51
2017-12-22T07:28:28.072Z,1024.52
2017-12-22T07:29:08.678Z,1024.48
2017-12-22T07:29:49.263Z,1024.5
2017-12-22T07:30:29.844Z,1024.5
2017-12-22T07:31:10.431Z,1024.49
2017-12-22T07:31:50.997Z,1024.54
2017-12-22T07:32:31.584Z,1024.51
2017-12-22T07:33:12.198Z,1024.52
2017-12-22T07:33:52.769Z,1024.53
2017-12-22T07:34:33.326Z,1024.53
2017-12-22T07:35:13.927Z,1024.51
2017-12-22T07:35:54.513Z,1024.52
2017-12-22T07:36:35.105Z,1024.51
2017-12-22T07:37:15.660Z,1024.51
2017-12-22T07:37:56.240Z,1024.49
2017-12-22T07:38:36.821Z,1024.48
2017-12-22T07:39:17.377Z,1024.47
2017-12-22T07:39:57.950Z,1024.47
2017-12-22T07:40:38.513Z,1024.46
2017-12-22T07:41:19.115Z,1024.51
2017-12-22T07:41:59.684Z,1024.48
2017-12-22T07:42:40.245Z,1024.47
2017-12-22T07:43:20.826Z,1024.49
2017-12-22T07:44:01.409Z,1024.47
2017-12-22T07:44:41.969Z,1024.44
2017-12-22T07:45:22.572Z,1024.48
2017-12-22T07:46:03.126Z,1024.44
2017-12-22T07:46:43.714Z,1024.49
2017-12-22T07:47:24.318Z,1024.46
2017-12-22T07:48:04.896Z,1024.49
2017-12-22T07:48:45.516Z,1024.49
2017-12-22T07:49:26.114Z,1024.5
2017-12-22T07:50:06.720Z,1024.54
2017-12-22T07:50:47.287Z,1024.53
2017-12-22T07:51:27.893Z,1024.58
2017-12-22T07:52:08.480Z,1024.58
2017-12-22T07:52:49.067Z,1024.62
2017-12-22T07:53:29.674Z,1024.63
2017-12-22T07:54:10.235Z,1024.58
2017-12-22T07:54:50.844Z,1024.57
2017-12-22T07:55:31.398Z,1024.59
2017-12-22T07:56:11.992Z,1024.58
2017-12-22T07:56:52.575Z,1024.56
2017-12-22T07:57:33.141Z,1024.58
2017-12-22T07:58:13.745Z,1024.59
2017-12-22T07:58:54.328Z,1024.58
2017-12-22T07:59:34.948Z,1024.59
2017-12-22T08:00:15.545Z,1024.58
2017-12-22T08:00:56.126Z,1024.66
2017-12-22T08:01:36.698Z,1024.63
2017-12-22T08:02:17.261Z,1024.67
2017-12-22T08:02:57.868Z,1024.7
2017-12-22T08:03:38.464Z,1024.63
2017-12-22T08:04:19.047Z,1024.65
2017-12-22T08:04:59.671Z,1024.7
2017-12-22T08:05:40.271Z,1024.71
2017-12-22T08:06:20.872Z,1024.69
2017-12-22T08:07:01.485Z,1024.7
2017-12-22T08:07:42.060Z,1024.7
2017-12-22T08:08:22.626Z,1024.73
2017-12-22T08:09:03.209Z,1024.68
2017-12-22T08:09:43.788Z,1024.68
2017-12-22T08:10:24.353Z,1024.64
2017-12-22T08:11:04.924Z,1024.64
2017-12-22T08:11:45.543Z,1024.62
2017-12-22T08:12:26.172Z,1024.65